sensor_id;sensor_type;location;lat;lon;timestamp;P1;durP1;ratioP1;P2;durP2;ratioP2
69754;SDS011;57023;52.218;5.158;2023-07-22T00:01:20;14.77;;;8.35;;
69754;SDS011;57023;52.218;5.158;2023-07-22T00:03:45;15.98;;;8.30;;
69754;SDS011;57023;52.218;5.158;2023-07-22T00:06:11;14.82;;;8.43;;
69754;SDS011;57023;52.218;5.158;2023-07-22T00:08:38;16.70;;;9.45;;
69754;SDS011;57023;52.218;5.158;2023-07-22T00:11:04;15.85;;;9.25;;
69754;SDS011;57023;52.218;5.158;2023-07-22T00:13:33;17.83;;;8.85;;
69754;SDS011;57023;52.218;5.158;2023-07-22T00:15:58;17.85;;;9.80;;
69754;SDS011;57023;52.218;5.158;2023-07-22T00:18:24;17.75;;;9.32;;
69754;SDS011;57023;52.218;5.158;2023-07-22T00:20:52;17.80;;;9.80;;
69754;SDS011;57023;52.218;5.158;2023-07-22T00:23:17;16.92;;;10.10;;
69754;SDS011;57023;52.218;5.158;2023-07-22T00:25:42;19.73;;;10.18;;
69754;SDS011;57023;52.218;5.158;2023-07-22T00:28:14;18.42;;;9.95;;
69754;SDS011;57023;52.218;5.158;2023-07-22T00:30:39;18.02;;;10.35;;
69754;SDS011;57023;52.218;5.158;2023-07-22T00:33:08;20.17;;;11.02;;
69754;SDS011;57023;52.218;5.158;2023-07-22T00:35:33;21.92;;;11.05;;
69754;SDS011;57023;52.218;5.158;2023-07-22T00:38:01;18.50;;;11.18;;
69754;SDS011;57023;52.218;5.158;2023-07-22T00:40:29;22.35;;;11.80;;
69754;SDS011;57023;52.218;5.158;2023-07-22T00:45:22;21.75;;;11.00;;
69754;SDS011;57023;52.218;5.158;2023-07-22T00:47:50;22.05;;;11.40;;
69754;SDS011;57023;52.218;5.158;2023-07-22T00:50:15;21.45;;;12.18;;
69754;SDS011;57023;52.218;5.158;2023-07-22T00:52:41;24.20;;;12.10;;
69754;SDS011;57023;52.218;5.158;2023-07-22T00:55:06;21.80;;;12.27;;
69754;SDS011;57023;52.218;5.158;2023-07-22T00:57:35;23.95;;;12.85;;
69754;SDS011;57023;52.218;5.158;2023-07-22T01:00:01;23.17;;;12.35;;
69754;SDS011;57023;52.218;5.158;2023-07-22T01:02:27;23.50;;;13.00;;
69754;SDS011;57023;52.218;5.158;2023-07-22T01:04:52;23.70;;;12.90;;
69754;SDS011;57023;52.218;5.158;2023-07-22T01:07:18;24.05;;;12.30;;
69754;SDS011;57023;52.218;5.158;2023-07-22T01:09:44;24.80;;;12.48;;
69754;SDS011;57023;52.218;5.158;2023-07-22T01:12:10;24.88;;;12.75;;
69754;SDS011;57023;52.218;5.158;2023-07-22T01:14:36;23.55;;;13.90;;
69754;SDS011;57023;52.218;5.158;2023-07-22T01:17:06;26.38;;;13.82;;
69754;SDS011;57023;52.218;5.158;2023-07-22T01:19:32;27.30;;;14.50;;
69754;SDS011;57023;52.218;5.158;2023-07-22T01:22:01;25.15;;;14.18;;
69754;SDS011;57023;52.218;5.158;2023-07-22T01:24:29;24.02;;;13.73;;
69754;SDS011;57023;52.218;5.158;2023-07-22T01:26:54;24.20;;;13.23;;
69754;SDS011;57023;52.218;5.158;2023-07-22T01:29:21;26.70;;;14.70;;
69754;SDS011;57023;52.218;5.158;2023-07-22T01:31:47;27.92;;;14.63;;
69754;SDS011;57023;52.218;5.158;2023-07-22T01:34:14;25.83;;;14.20;;
69754;SDS011;57023;52.218;5.158;2023-07-22T01:36:39;27.40;;;15.23;;
69754;SDS011;57023;52.218;5.158;2023-07-22T01:39:05;26.15;;;14.75;;
69754;SDS011;57023;52.218;5.158;2023-07-22T01:41:33;24.17;;;14.32;;
69754;SDS011;57023;52.218;5.158;2023-07-22T01:43:58;28.67;;;15.45;;
69754;SDS011;57023;52.218;5.158;2023-07-22T01:46:24;27.50;;;15.02;;
69754;SDS011;57023;52.218;5.158;2023-07-22T01:48:50;29.10;;;15.05;;
69754;SDS011;57023;52.218;5.158;2023-07-22T01:51:15;30.33;;;15.40;;
69754;SDS011;57023;52.218;5.158;2023-07-22T01:53:41;26.42;;;15.10;;
69754;SDS011;57023;52.218;5.158;2023-07-22T01:56:06;31.00;;;15.63;;
69754;SDS011;57023;52.218;5.158;2023-07-22T01:58:32;29.95;;;15.02;;
69754;SDS011;57023;52.218;5.158;2023-07-22T02:00:57;28.75;;;15.48;;
69754;SDS011;57023;52.218;5.158;2023-07-22T02:03:23;29.88;;;15.82;;
69754;SDS011;57023;52.218;5.158;2023-07-22T02:05:48;29.90;;;16.20;;
69754;SDS011;57023;52.218;5.158;2023-07-22T02:08:13;28.20;;;15.77;;
69754;SDS011;57023;52.218;5.158;2023-07-22T02:10:38;28.58;;;15.27;;
69754;SDS011;57023;52.218;5.158;2023-07-22T02:13:06;29.38;;;15.48;;
69754;SDS011;57023;52.218;5.158;2023-07-22T02:15:32;26.63;;;14.98;;
69754;SDS011;57023;52.218;5.158;2023-07-22T02:17:57;29.30;;;14.80;;
69754;SDS011;57023;52.218;5.158;2023-07-22T02:20:23;29.00;;;15.65;;
69754;SDS011;57023;52.218;5.158;2023-07-22T02:22:49;30.45;;;15.82;;
69754;SDS011;57023;52.218;5.158;2023-07-22T02:25:14;32.25;;;17.38;;
69754;SDS011;57023;52.218;5.158;2023-07-22T02:27:40;27.60;;;16.33;;
69754;SDS011;57023;52.218;5.158;2023-07-22T02:30:06;31.20;;;16.77;;
69754;SDS011;57023;52.218;5.158;2023-07-22T02:32:38;31.55;;;17.25;;
69754;SDS011;57023;52.218;5.158;2023-07-22T02:35:05;33.17;;;16.73;;
69754;SDS011;57023;52.218;5.158;2023-07-22T02:37:31;33.05;;;17.45;;
69754;SDS011;57023;52.218;5.158;2023-07-22T02:39:57;29.88;;;17.00;;
69754;SDS011;57023;52.218;5.158;2023-07-22T02:42:22;33.70;;;17.55;;
69754;SDS011;57023;52.218;5.158;2023-07-22T02:44:50;33.60;;;17.70;;
69754;SDS011;57023;52.218;5.158;2023-07-22T02:47:16;30.63;;;17.38;;
69754;SDS011;57023;52.218;5.158;2023-07-22T02:49:43;33.77;;;17.83;;
69754;SDS011;57023;52.218;5.158;2023-07-22T02:52:11;31.95;;;17.42;;
69754;SDS011;57023;52.218;5.158;2023-07-22T02:54:39;34.17;;;16.83;;
69754;SDS011;57023;52.218;5.158;2023-07-22T02:57:08;33.75;;;18.95;;
69754;SDS011;57023;52.218;5.158;2023-07-22T02:59:33;30.42;;;17.23;;
69754;SDS011;57023;52.218;5.158;2023-07-22T03:02:02;33.60;;;17.15;;
69754;SDS011;57023;52.218;5.158;2023-07-22T03:04:27;33.42;;;17.50;;
69754;SDS011;57023;52.218;5.158;2023-07-22T03:06:53;29.27;;;16.30;;
69754;SDS011;57023;52.218;5.158;2023-07-22T03:09:18;30.85;;;16.90;;
69754;SDS011;57023;52.218;5.158;2023-07-22T03:11:46;31.00;;;17.05;;
69754;SDS011;57023;52.218;5.158;2023-07-22T03:14:11;31.73;;;16.88;;
69754;SDS011;57023;52.218;5.158;2023-07-22T03:16:37;28.65;;;16.48;;
69754;SDS011;57023;52.218;5.158;2023-07-22T03:19:02;31.02;;;16.52;;
69754;SDS011;57023;52.218;5.158;2023-07-22T03:21:27;32.65;;;16.67;;
69754;SDS011;57023;52.218;5.158;2023-07-22T03:23:54;29.77;;;16.67;;
69754;SDS011;57023;52.218;5.158;2023-07-22T03:26:19;32.05;;;16.63;;
69754;SDS011;57023;52.218;5.158;2023-07-22T03:28:45;31.83;;;16.40;;
69754;SDS011;57023;52.218;5.158;2023-07-22T03:31:11;30.65;;;16.35;;
69754;SDS011;57023;52.218;5.158;2023-07-22T03:33:37;31.65;;;16.73;;
69754;SDS011;57023;52.218;5.158;2023-07-22T03:36:02;35.05;;;16.30;;
69754;SDS011;57023;52.218;5.158;2023-07-22T03:38:30;30.50;;;16.25;;
69754;SDS011;57023;52.218;5.158;2023-07-22T03:40:55;29.92;;;15.65;;
69754;SDS011;57023;52.218;5.158;2023-07-22T03:43:21;31.20;;;16.08;;
69754;SDS011;57023;52.218;5.158;2023-07-22T03:45:56;27.45;;;15.07;;
69754;SDS011;57023;52.218;5.158;2023-07-22T03:48:21;31.92;;;15.68;;
69754;SDS011;57023;52.218;5.158;2023-07-22T03:50:46;30.88;;;15.75;;
69754;SDS011;57023;52.218;5.158;2023-07-22T03:53:12;28.95;;;14.93;;
69754;SDS011;57023;52.218;5.158;2023-07-22T03:55:37;26.13;;;13.73;;
69754;SDS011;57023;52.218;5.158;2023-07-22T03:58:02;26.27;;;13.98;;
69754;SDS011;57023;52.218;5.158;2023-07-22T04:00:30;27.45;;;14.07;;
69754;SDS011;57023;52.218;5.158;2023-07-22T04:02:56;26.00;;;13.55;;
69754;SDS011;57023;52.218;5.158;2023-07-22T04:05:24;25.27;;;13.65;;
69754;SDS011;57023;52.218;5.158;2023-07-22T04:07:52;24.05;;;13.20;;
69754;SDS011;57023;52.218;5.158;2023-07-22T04:10:17;24.42;;;12.60;;
69754;SDS011;57023;52.218;5.158;2023-07-22T04:12:43;23.83;;;12.95;;
69754;SDS011;57023;52.218;5.158;2023-07-22T04:15:08;22.33;;;12.43;;
69754;SDS011;57023;52.218;5.158;2023-07-22T04:17:34;23.45;;;12.52;;
69754;SDS011;57023;52.218;5.158;2023-07-22T04:20:02;25.02;;;12.52;;
69754;SDS011;57023;52.218;5.158;2023-07-22T04:22:28;20.67;;;11.80;;
69754;SDS011;57023;52.218;5.158;2023-07-22T04:24:54;21.88;;;11.38;;
69754;SDS011;57023;52.218;5.158;2023-07-22T04:27:20;19.70;;;11.40;;
69754;SDS011;57023;52.218;5.158;2023-07-22T04:29:48;19.60;;;10.45;;
69754;SDS011;57023;52.218;5.158;2023-07-22T04:32:13;21.55;;;11.45;;
69754;SDS011;57023;52.218;5.158;2023-07-22T04:34:38;22.35;;;10.60;;
69754;SDS011;57023;52.218;5.158;2023-07-22T04:37:04;18.60;;;10.30;;
69754;SDS011;57023;52.218;5.158;2023-07-22T04:39:30;18.83;;;10.30;;
69754;SDS011;57023;52.218;5.158;2023-07-22T04:41:58;18.35;;;9.38;;
69754;SDS011;57023;52.218;5.158;2023-07-22T04:44:24;16.40;;;8.45;;
69754;SDS011;57023;52.218;5.158;2023-07-22T04:46:49;16.67;;;8.98;;
69754;SDS011;57023;52.218;5.158;2023-07-22T04:49:20;18.10;;;9.38;;
69754;SDS011;57023;52.218;5.158;2023-07-22T04:51:47;16.38;;;8.93;;
69754;SDS011;57023;52.218;5.158;2023-07-22T04:54:12;21.73;;;9.63;;
69754;SDS011;57023;52.218;5.158;2023-07-22T04:56:37;15.95;;;8.98;;
69754;SDS011;57023;52.218;5.158;2023-07-22T04:59:03;16.00;;;9.10;;
69754;SDS011;57023;52.218;5.158;2023-07-22T05:01:29;16.25;;;9.13;;
69754;SDS011;57023;52.218;5.158;2023-07-22T05:03:54;14.05;;;8.45;;
69754;SDS011;57023;52.218;5.158;2023-07-22T05:06:20;17.00;;;9.38;;
69754;SDS011;57023;52.218;5.158;2023-07-22T05:08:46;15.40;;;8.27;;
69754;SDS011;57023;52.218;5.158;2023-07-22T05:11:11;17.27;;;8.77;;
69754;SDS011;57023;52.218;5.158;2023-07-22T05:13:36;18.30;;;9.23;;
69754;SDS011;57023;52.218;5.158;2023-07-22T05:16:04;17.45;;;9.15;;
69754;SDS011;57023;52.218;5.158;2023-07-22T05:18:30;17.40;;;8.93;;
69754;SDS011;57023;52.218;5.158;2023-07-22T05:20:58;18.05;;;10.02;;
69754;SDS011;57023;52.218;5.158;2023-07-22T05:23:23;21.40;;;10.60;;
69754;SDS011;57023;52.218;5.158;2023-07-22T05:25:52;16.10;;;9.63;;
69754;SDS011;57023;52.218;5.158;2023-07-22T05:28:18;21.35;;;10.52;;
69754;SDS011;57023;52.218;5.158;2023-07-22T05:30:44;24.13;;;10.88;;
69754;SDS011;57023;52.218;5.158;2023-07-22T05:33:09;23.10;;;11.05;;
69754;SDS011;57023;52.218;5.158;2023-07-22T05:35:38;24.13;;;10.98;;
69754;SDS011;57023;52.218;5.158;2023-07-22T05:38:03;20.00;;;11.23;;
69754;SDS011;57023;52.218;5.158;2023-07-22T05:40:32;21.73;;;11.90;;
69754;SDS011;57023;52.218;5.158;2023-07-22T05:42:57;21.98;;;11.80;;
69754;SDS011;57023;52.218;5.158;2023-07-22T05:45:22;22.52;;;11.27;;
69754;SDS011;57023;52.218;5.158;2023-07-22T05:47:48;22.77;;;11.20;;
69754;SDS011;57023;52.218;5.158;2023-07-22T05:50:13;26.13;;;11.75;;
69754;SDS011;57023;52.218;5.158;2023-07-22T05:52:41;22.73;;;11.90;;
69754;SDS011;57023;52.218;5.158;2023-07-22T05:55:06;26.67;;;12.13;;
69754;SDS011;57023;52.218;5.158;2023-07-22T05:57:32;25.52;;;12.50;;
69754;SDS011;57023;52.218;5.158;2023-07-22T06:00:03;23.63;;;12.55;;
69754;SDS011;57023;52.218;5.158;2023-07-22T06:02:29;24.38;;;12.98;;
69754;SDS011;57023;52.218;5.158;2023-07-22T06:04:54;31.98;;;13.95;;
69754;SDS011;57023;52.218;5.158;2023-07-22T06:07:19;28.38;;;14.50;;
69754;SDS011;57023;52.218;5.158;2023-07-22T06:09:45;23.92;;;12.05;;
69754;SDS011;57023;52.218;5.158;2023-07-22T06:12:13;25.00;;;13.27;;
69754;SDS011;57023;52.218;5.158;2023-07-22T06:14:38;26.42;;;14.23;;
69754;SDS011;57023;52.218;5.158;2023-07-22T06:17:03;25.40;;;13.38;;
69754;SDS011;57023;52.218;5.158;2023-07-22T06:19:31;29.58;;;14.50;;
69754;SDS011;57023;52.218;5.158;2023-07-22T06:21:57;28.85;;;14.45;;
69754;SDS011;57023;52.218;5.158;2023-07-22T06:24:25;29.92;;;13.50;;
69754;SDS011;57023;52.218;5.158;2023-07-22T06:26:50;28.95;;;15.05;;
69754;SDS011;57023;52.218;5.158;2023-07-22T06:29:15;27.48;;;14.15;;
69754;SDS011;57023;52.218;5.158;2023-07-22T06:31:41;25.45;;;13.43;;
69754;SDS011;57023;52.218;5.158;2023-07-22T06:34:06;25.27;;;13.23;;
69754;SDS011;57023;52.218;5.158;2023-07-22T06:36:32;27.85;;;14.15;;
69754;SDS011;57023;52.218;5.158;2023-07-22T06:38:57;26.85;;;13.93;;
69754;SDS011;57023;52.218;5.158;2023-07-22T06:41:22;26.08;;;14.15;;
69754;SDS011;57023;52.218;5.158;2023-07-22T06:43:49;27.65;;;16.02;;
69754;SDS011;57023;52.218;5.158;2023-07-22T06:46:15;25.42;;;13.82;;
69754;SDS011;57023;52.218;5.158;2023-07-22T06:48:40;29.77;;;15.52;;
69754;SDS011;57023;52.218;5.158;2023-07-22T06:51:06;26.13;;;14.35;;
69754;SDS011;57023;52.218;5.158;2023-07-22T06:53:32;28.38;;;14.52;;
69754;SDS011;57023;52.218;5.158;2023-07-22T06:55:58;23.50;;;12.02;;
69754;SDS011;57023;52.218;5.158;2023-07-22T06:58:23;25.00;;;13.10;;
69754;SDS011;57023;52.218;5.158;2023-07-22T07:00:52;23.88;;;12.65;;
69754;SDS011;57023;52.218;5.158;2023-07-22T07:03:18;24.67;;;13.30;;
69754;SDS011;57023;52.218;5.158;2023-07-22T07:05:43;20.10;;;11.32;;
69754;SDS011;57023;52.218;5.158;2023-07-22T07:08:11;22.17;;;12.18;;
69754;SDS011;57023;52.218;5.158;2023-07-22T07:10:37;20.85;;;11.90;;
69754;SDS011;57023;52.218;5.158;2023-07-22T07:15:29;25.17;;;13.03;;
69754;SDS011;57023;52.218;5.158;2023-07-22T07:17:57;22.67;;;12.55;;
69754;SDS011;57023;52.218;5.158;2023-07-22T07:20:25;26.85;;;13.23;;
69754;SDS011;57023;52.218;5.158;2023-07-22T07:22:51;24.95;;;11.80;;
69754;SDS011;57023;52.218;5.158;2023-07-22T07:25:16;21.42;;;10.23;;
69754;SDS011;57023;52.218;5.158;2023-07-22T07:27:44;22.05;;;12.05;;
69754;SDS011;57023;52.218;5.158;2023-07-22T07:30:09;23.10;;;12.60;;
69754;SDS011;57023;52.218;5.158;2023-07-22T07:32:35;19.77;;;10.82;;
69754;SDS011;57023;52.218;5.158;2023-07-22T07:35:04;22.52;;;11.77;;
69754;SDS011;57023;52.218;5.158;2023-07-22T07:37:31;23.17;;;13.27;;
69754;SDS011;57023;52.218;5.158;2023-07-22T07:39:57;22.65;;;11.82;;
69754;SDS011;57023;52.218;5.158;2023-07-22T07:42:25;28.50;;;12.15;;
69754;SDS011;57023;52.218;5.158;2023-07-22T07:44:51;17.35;;;9.32;;
69754;SDS011;57023;52.218;5.158;2023-07-22T07:47:16;21.85;;;11.82;;
69754;SDS011;57023;52.218;5.158;2023-07-22T07:49:42;20.50;;;11.80;;
69754;SDS011;57023;52.218;5.158;2023-07-22T07:52:10;16.13;;;9.13;;
69754;SDS011;57023;52.218;5.158;2023-07-22T07:54:35;20.90;;;12.10;;
69754;SDS011;57023;52.218;5.158;2023-07-22T07:57:00;16.60;;;9.48;;
69754;SDS011;57023;52.218;5.158;2023-07-22T07:59:36;17.80;;;12.07;;
69754;SDS011;57023;52.218;5.158;2023-07-22T08:02:01;20.58;;;10.80;;
69754;SDS011;57023;52.218;5.158;2023-07-22T08:04:29;20.45;;;11.80;;
69754;SDS011;57023;52.218;5.158;2023-07-22T08:06:54;20.65;;;12.15;;
69754;SDS011;57023;52.218;5.158;2023-07-22T08:09:19;19.63;;;11.27;;
69754;SDS011;57023;52.218;5.158;2023-07-22T08:11:45;20.42;;;12.43;;
69754;SDS011;57023;52.218;5.158;2023-07-22T08:14:10;15.77;;;8.77;;
69754;SDS011;57023;52.218;5.158;2023-07-22T08:16:36;22.10;;;12.57;;
69754;SDS011;57023;52.218;5.158;2023-07-22T08:19:02;20.65;;;11.07;;
69754;SDS011;57023;52.218;5.158;2023-07-22T08:21:29;18.20;;;11.00;;
69754;SDS011;57023;52.218;5.158;2023-07-22T08:23:54;19.75;;;9.82;;
69754;SDS011;57023;52.218;5.158;2023-07-22T08:26:20;16.33;;;10.18;;
69754;SDS011;57023;52.218;5.158;2023-07-22T08:28:47;20.67;;;12.25;;
69754;SDS011;57023;52.218;5.158;2023-07-22T08:31:12;17.63;;;10.82;;
69754;SDS011;57023;52.218;5.158;2023-07-22T08:33:38;19.90;;;11.65;;
69754;SDS011;57023;52.218;5.158;2023-07-22T08:36:03;20.80;;;11.00;;
69754;SDS011;57023;52.218;5.158;2023-07-22T08:38:28;19.13;;;11.32;;
69754;SDS011;57023;52.218;5.158;2023-07-22T08:40:54;19.08;;;12.60;;
69754;SDS011;57023;52.218;5.158;2023-07-22T08:43:20;19.70;;;13.60;;
69754;SDS011;57023;52.218;5.158;2023-07-22T08:48:12;18.50;;;11.70;;
69754;SDS011;57023;52.218;5.158;2023-07-22T08:50:53;18.77;;;12.18;;
69754;SDS011;57023;52.218;5.158;2023-07-22T08:53:22;18.60;;;12.45;;
69754;SDS011;57023;52.218;5.158;2023-07-22T08:55:53;16.38;;;10.63;;
69754;SDS011;57023;52.218;5.158;2023-07-22T08:58:18;19.85;;;11.95;;
69754;SDS011;57023;52.218;5.158;2023-07-22T09:00:44;16.88;;;12.70;;
69754;SDS011;57023;52.218;5.158;2023-07-22T09:03:12;19.23;;;9.88;;
69754;SDS011;57023;52.218;5.158;2023-07-22T09:05:37;17.52;;;12.70;;
69754;SDS011;57023;52.218;5.158;2023-07-22T09:08:05;19.80;;;12.55;;
69754;SDS011;57023;52.218;5.158;2023-07-22T09:10:32;17.30;;;11.82;;
69754;SDS011;57023;52.218;5.158;2023-07-22T09:12:58;15.57;;;9.80;;
69754;SDS011;57023;52.218;5.158;2023-07-22T09:15:24;16.08;;;11.77;;
69754;SDS011;57023;52.218;5.158;2023-07-22T09:17:49;17.83;;;11.82;;
69754;SDS011;57023;52.218;5.158;2023-07-22T09:20:15;15.60;;;11.43;;
69754;SDS011;57023;52.218;5.158;2023-07-22T09:22:45;13.82;;;11.15;;
69754;SDS011;57023;52.218;5.158;2023-07-22T09:25:12;15.10;;;10.85;;
69754;SDS011;57023;52.218;5.158;2023-07-22T09:27:45;14.95;;;10.40;;
69754;SDS011;57023;52.218;5.158;2023-07-22T09:30:27;15.13;;;9.45;;
69754;SDS011;57023;52.218;5.158;2023-07-22T09:32:54;15.00;;;9.60;;
69754;SDS011;57023;52.218;5.158;2023-07-22T09:35:45;10.40;;;7.50;;
69754;SDS011;57023;52.218;5.158;2023-07-22T09:38:14;15.63;;;10.60;;
69754;SDS011;57023;52.218;5.158;2023-07-22T09:40:43;14.52;;;9.60;;
69754;SDS011;57023;52.218;5.158;2023-07-22T09:43:09;14.65;;;8.32;;
69754;SDS011;57023;52.218;5.158;2023-07-22T09:45:36;14.40;;;8.07;;
69754;SDS011;57023;52.218;5.158;2023-07-22T09:48:02;15.10;;;8.02;;
69754;SDS011;57023;52.218;5.158;2023-07-22T09:50:28;13.77;;;7.72;;
69754;SDS011;57023;52.218;5.158;2023-07-22T09:52:57;9.80;;;6.50;;
69754;SDS011;57023;52.218;5.158;2023-07-22T09:55:29;10.25;;;7.00;;
69754;SDS011;57023;52.218;5.158;2023-07-22T09:57:56;12.32;;;7.28;;
69754;SDS011;57023;52.218;5.158;2023-07-22T10:00:23;12.23;;;6.95;;
69754;SDS011;57023;52.218;5.158;2023-07-22T10:02:57;12.52;;;6.65;;
69754;SDS011;57023;52.218;5.158;2023-07-22T10:05:23;13.15;;;6.53;;
69754;SDS011;57023;52.218;5.158;2023-07-22T10:07:50;11.02;;;6.03;;
69754;SDS011;57023;52.218;5.158;2023-07-22T10:10:20;13.40;;;7.60;;
69754;SDS011;57023;52.218;5.158;2023-07-22T10:12:50;13.00;;;7.68;;
69754;SDS011;57023;52.218;5.158;2023-07-22T10:15:16;13.43;;;7.80;;
69754;SDS011;57023;52.218;5.158;2023-07-22T10:17:44;12.30;;;7.82;;
69754;SDS011;57023;52.218;5.158;2023-07-22T10:20:11;12.27;;;8.10;;
69754;SDS011;57023;52.218;5.158;2023-07-22T10:22:41;12.95;;;7.20;;
69754;SDS011;57023;52.218;5.158;2023-07-22T10:25:10;12.57;;;7.78;;
69754;SDS011;57023;52.218;5.158;2023-07-22T10:27:36;11.30;;;6.78;;
69754;SDS011;57023;52.218;5.158;2023-07-22T10:30:05;11.70;;;6.88;;
69754;SDS011;57023;52.218;5.158;2023-07-22T10:32:38;9.70;;;6.37;;
69754;SDS011;57023;52.218;5.158;2023-07-22T10:35:04;12.60;;;6.72;;
69754;SDS011;57023;52.218;5.158;2023-07-22T10:37:36;9.55;;;6.05;;
69754;SDS011;57023;52.218;5.158;2023-07-22T10:43:04;10.52;;;6.28;;
69754;SDS011;57023;52.218;5.158;2023-07-22T10:45:31;8.77;;;6.10;;
69754;SDS011;57023;52.218;5.158;2023-07-22T10:48:07;7.65;;;5.53;;
69754;SDS011;57023;52.218;5.158;2023-07-22T10:50:38;8.52;;;5.00;;
69754;SDS011;57023;52.218;5.158;2023-07-22T10:53:05;8.35;;;5.18;;
69754;SDS011;57023;52.218;5.158;2023-07-22T10:55:30;9.38;;;5.47;;
69754;SDS011;57023;52.218;5.158;2023-07-22T10:58:03;10.48;;;5.50;;
69754;SDS011;57023;52.218;5.158;2023-07-22T11:00:30;7.95;;;5.68;;
69754;SDS011;57023;52.218;5.158;2023-07-22T11:05:53;9.10;;;5.78;;
69754;SDS011;57023;52.218;5.158;2023-07-22T11:08:37;11.13;;;5.72;;
69754;SDS011;57023;52.218;5.158;2023-07-22T11:11:04;11.93;;;6.30;;
69754;SDS011;57023;52.218;5.158;2023-07-22T11:13:30;9.38;;;5.50;;
69754;SDS011;57023;52.218;5.158;2023-07-22T11:15:58;9.13;;;6.18;;
69754;SDS011;57023;52.218;5.158;2023-07-22T11:18:35;10.35;;;5.63;;
69754;SDS011;57023;52.218;5.158;2023-07-22T11:21:01;9.57;;;6.15;;
69754;SDS011;57023;52.218;5.158;2023-07-22T11:23:27;9.13;;;6.13;;
69754;SDS011;57023;52.218;5.158;2023-07-22T11:25:53;10.93;;;5.93;;
69754;SDS011;57023;52.218;5.158;2023-07-22T11:28:24;9.48;;;6.38;;
69754;SDS011;57023;52.218;5.158;2023-07-22T11:30:50;8.30;;;6.05;;
69754;SDS011;57023;52.218;5.158;2023-07-22T11:33:18;10.88;;;6.28;;
69754;SDS011;57023;52.218;5.158;2023-07-22T11:35:43;7.72;;;6.00;;
69754;SDS011;57023;52.218;5.158;2023-07-22T11:38:11;11.40;;;6.43;;
69754;SDS011;57023;52.218;5.158;2023-07-22T11:40:37;9.98;;;6.18;;
69754;SDS011;57023;52.218;5.158;2023-07-22T11:43:02;9.70;;;5.20;;
69754;SDS011;57023;52.218;5.158;2023-07-22T11:45:27;10.65;;;5.70;;
69754;SDS011;57023;52.218;5.158;2023-07-22T11:47:53;7.15;;;4.85;;
69754;SDS011;57023;52.218;5.158;2023-07-22T11:50:18;7.70;;;5.00;;
69754;SDS011;57023;52.218;5.158;2023-07-22T11:52:49;7.43;;;4.90;;
69754;SDS011;57023;52.218;5.158;2023-07-22T11:55:15;11.18;;;5.35;;
69754;SDS011;57023;52.218;5.158;2023-07-22T11:57:40;9.10;;;5.60;;
69754;SDS011;57023;52.218;5.158;2023-07-22T12:00:07;7.72;;;5.00;;
69754;SDS011;57023;52.218;5.158;2023-07-22T12:02:36;9.70;;;5.10;;
69754;SDS011;57023;52.218;5.158;2023-07-22T12:05:02;7.63;;;5.10;;
69754;SDS011;57023;52.218;5.158;2023-07-22T12:07:33;11.23;;;5.75;;
69754;SDS011;57023;52.218;5.158;2023-07-22T12:10:02;7.63;;;5.03;;
69754;SDS011;57023;52.218;5.158;2023-07-22T12:12:36;7.50;;;4.50;;
69754;SDS011;57023;52.218;5.158;2023-07-22T12:15:04;7.68;;;4.50;;
69754;SDS011;57023;52.218;5.158;2023-07-22T12:20:14;9.65;;;4.88;;
69754;SDS011;57023;52.218;5.158;2023-07-22T12:22:41;7.85;;;4.32;;
69754;SDS011;57023;52.218;5.158;2023-07-22T12:25:06;7.20;;;3.90;;
69754;SDS011;57023;52.218;5.158;2023-07-22T12:27:32;7.55;;;4.10;;
69754;SDS011;57023;52.218;5.158;2023-07-22T12:29:57;8.68;;;3.70;;
69754;SDS011;57023;52.218;5.158;2023-07-22T12:32:22;7.30;;;4.00;;
69754;SDS011;57023;52.218;5.158;2023-07-22T12:34:48;6.47;;;3.70;;
69754;SDS011;57023;52.218;5.158;2023-07-22T12:37:13;7.50;;;3.65;;
69754;SDS011;57023;52.218;5.158;2023-07-22T12:39:38;5.88;;;3.22;;
69754;SDS011;57023;52.218;5.158;2023-07-22T12:42:04;6.50;;;3.55;;
69754;SDS011;57023;52.218;5.158;2023-07-22T12:44:29;5.80;;;3.20;;
69754;SDS011;57023;52.218;5.158;2023-07-22T12:46:55;8.05;;;3.40;;
69754;SDS011;57023;52.218;5.158;2023-07-22T12:49:20;7.88;;;3.55;;
69754;SDS011;57023;52.218;5.158;2023-07-22T12:51:48;6.72;;;3.45;;
69754;SDS011;57023;52.218;5.158;2023-07-22T12:54:13;5.95;;;3.10;;
69754;SDS011;57023;52.218;5.158;2023-07-22T12:56:39;5.60;;;2.83;;
69754;SDS011;57023;52.218;5.158;2023-07-22T12:59:04;5.17;;;2.87;;
69754;SDS011;57023;52.218;5.158;2023-07-22T13:01:29;7.83;;;3.20;;
69754;SDS011;57023;52.218;5.158;2023-07-22T13:03:57;7.70;;;2.80;;
69754;SDS011;57023;52.218;5.158;2023-07-22T13:06:23;5.55;;;2.90;;
69754;SDS011;57023;52.218;5.158;2023-07-22T13:08:48;6.20;;;2.63;;
69754;SDS011;57023;52.218;5.158;2023-07-22T13:11:16;6.75;;;2.90;;
69754;SDS011;57023;52.218;5.158;2023-07-22T13:13:42;5.93;;;2.90;;
69754;SDS011;57023;52.218;5.158;2023-07-22T13:16:07;4.82;;;2.55;;
69754;SDS011;57023;52.218;5.158;2023-07-22T13:18:32;4.85;;;2.83;;
69754;SDS011;57023;52.218;5.158;2023-07-22T13:20:58;6.15;;;2.97;;
69754;SDS011;57023;52.218;5.158;2023-07-22T13:23:23;7.13;;;2.92;;
69754;SDS011;57023;52.218;5.158;2023-07-22T13:25:48;5.85;;;2.75;;
69754;SDS011;57023;52.218;5.158;2023-07-22T13:28:14;6.47;;;3.33;;
69754;SDS011;57023;52.218;5.158;2023-07-22T13:30:39;7.00;;;3.20;;
69754;SDS011;57023;52.218;5.158;2023-07-22T13:33:04;7.00;;;4.55;;
69754;SDS011;57023;52.218;5.158;2023-07-22T13:35:33;8.60;;;4.03;;
69754;SDS011;57023;52.218;5.158;2023-07-22T13:37:58;5.93;;;3.47;;
69754;SDS011;57023;52.218;5.158;2023-07-22T13:40:23;6.13;;;3.33;;
69754;SDS011;57023;52.218;5.158;2023-07-22T13:42:49;5.07;;;3.20;;
69754;SDS011;57023;52.218;5.158;2023-07-22T13:45:14;5.00;;;3.20;;
69754;SDS011;57023;52.218;5.158;2023-07-22T13:47:42;6.25;;;3.63;;
69754;SDS011;57023;52.218;5.158;2023-07-22T13:50:08;4.72;;;3.30;;
69754;SDS011;57023;52.218;5.158;2023-07-22T13:52:34;8.77;;;4.10;;
69754;SDS011;57023;52.218;5.158;2023-07-22T13:54:59;5.43;;;3.15;;
69754;SDS011;57023;52.218;5.158;2023-07-22T13:57:24;7.78;;;3.10;;
69754;SDS011;57023;52.218;5.158;2023-07-22T13:59:50;5.95;;;3.00;;
69754;SDS011;57023;52.218;5.158;2023-07-22T14:02:15;5.75;;;2.97;;
69754;SDS011;57023;52.218;5.158;2023-07-22T14:04:44;6.78;;;3.30;;
69754;SDS011;57023;52.218;5.158;2023-07-22T14:07:09;5.55;;;3.10;;
69754;SDS011;57023;52.218;5.158;2023-07-22T14:09:34;6.78;;;3.25;;
69754;SDS011;57023;52.218;5.158;2023-07-22T14:12:00;4.95;;;3.20;;
69754;SDS011;57023;52.218;5.158;2023-07-22T14:14:25;5.38;;;2.88;;
69754;SDS011;57023;52.218;5.158;2023-07-22T14:16:54;6.30;;;3.05;;
69754;SDS011;57023;52.218;5.158;2023-07-22T14:19:20;6.18;;;2.95;;
69754;SDS011;57023;52.218;5.158;2023-07-22T14:21:46;5.75;;;3.08;;
69754;SDS011;57023;52.218;5.158;2023-07-22T14:24:14;6.18;;;3.30;;
69754;SDS011;57023;52.218;5.158;2023-07-22T14:26:39;6.03;;;2.90;;
69754;SDS011;57023;52.218;5.158;2023-07-22T14:29:05;6.38;;;2.90;;
69754;SDS011;57023;52.218;5.158;2023-07-22T14:31:33;5.32;;;2.42;;
69754;SDS011;57023;52.218;5.158;2023-07-22T14:33:58;5.60;;;2.95;;
69754;SDS011;57023;52.218;5.158;2023-07-22T14:36:24;6.15;;;2.80;;
69754;SDS011;57023;52.218;5.158;2023-07-22T14:38:49;6.25;;;2.65;;
69754;SDS011;57023;52.218;5.158;2023-07-22T14:41:14;6.25;;;3.25;;
69754;SDS011;57023;52.218;5.158;2023-07-22T14:43:40;5.32;;;3.20;;